Latest Coastal Weather Observations for Friendly Beaches

IDT60701

Issued at 9:22 am EDT Friday 23 February 2018 (issued every 10 minutes, with the page automatically refreshed every 10 minutes)

About coastal observations | Map of coastal stations | Coastal observations for TAS | Marine services | Other Formats
Station Details ID: 092114 Name: FRIENDLY BEACHES Lat: -42.00 Lon: 148.28 Height: 55.0 m
Data from the previous 72 hours. | See also: Recent months at Friendly Beaches
Date/Time
EDT
Temp
°C
Wind Pressure Rain since
9am
mm
Weather Cloud Vis
km
Sea
Height
m
Swell
Dir  Spd
kts
Gust
kts
hPa Trend Height
m
Period
s
Dir
23/09:00am 19.4 NNE 8 14 1013.4 - 0.0 - - - - - - -
23/08:30am 18.9 NNE 6 12 1013.6 - 0.0 - - - - - - -
23/08:00am 18.7 NNE 5 10 1013.8 - 0.0 - - - - - - -
23/07:30am 18.4 NNE 4 7 1013.9 - 0.0 - - - - - - -
23/07:00am 18.1 N 5 9 1014.0 - 0.0 - - - - - - -
23/06:30am 17.6 NNE 2 4 1013.9 - 0.0 - - - - - - -
23/06:00am 17.7 NNE 5 9 1013.9 - 0.0 - - - - - - -
23/05:30am 17.5 N 5 9 1014.0 - 0.0 - - - - - - -
23/05:00am 17.2 N 5 9 1014.0 - 0.0 - - - - - - -
23/04:30am 17.3 N 5 9 1014.5 - 0.0 - - - - - - -
23/04:00am 17.1 N 6 9 1014.4 - 0.0 - - - - - - -
23/03:30am 16.7 N 3 5 1014.8 - 0.0 - - - - - - -
23/03:00am 17.0 N 5 8 1015.0 - 0.0 - - - - - - -
23/02:30am 17.1 N 6 9 1015.2 - 0.0 - - - - - - -
23/02:00am 17.2 N 6 9 1015.5 - 0.0 - - - - - - -
23/01:30am 17.1 N 6 12 1015.8 - 0.0 - - - - - - -
23/01:00am 17.0 N 5 10 1015.9 - 0.0 - - - - - - -
23/12:30am 17.3 N 6 11 1016.2 - 0.0 - - - - - - -
23/12:00am 17.3 N 8 14 1016.3 - 0.0 - - - - - - -
 
Date/Time
EDT
Temp
°C
Wind Pressure Rain since
9am
mm
Weather Cloud Vis
km
Sea
Height
m
Swell
Dir  Spd
kts
Gust
kts
hPa Trend Height
m
Period
s
Dir
22/11:30pm 17.4 N 9 13 1016.4 - 0.0 - - - - - - -
22/11:00pm 17.5 N 10 15 1016.4 - 0.0 - - - - - - -
22/10:30pm 17.6 N 10 15 1016.5 - 0.0 - - - - - - -
22/10:00pm 17.6 NNE 10 16 1016.5 - 0.0 - - - - - - -
22/09:30pm 17.6 NNE 9 13 1016.7 - 0.0 - - - - - - -
22/09:00pm 17.7 NNE 10 17 1016.4 - 0.0 - - - - - - -
22/08:30pm 17.8 NNE 10 16 1016.3 - 0.0 - - - - - - -
22/08:00pm 18.1 NNE 11 17 1016.0 - 0.0 - - - - - - -
22/07:30pm 18.5 NNE 13 21 1016.0 - 0.0 - - - - - - -
22/07:00pm 19.3 NNE 13 21 1015.7 - 0.0 - - - - - - -
22/06:30pm 20.1 NNE 13 20 1015.7 - 0.0 - - - - - - -
22/06:00pm 20.9 NNE 13 21 1015.7 - 0.0 - - - - - - -
22/05:30pm 21.4 NNE 14 22 1015.7 - 0.0 - - - - - - -
22/05:00pm 21.8 NNE 14 21 1015.8 - 0.0 - - - - - - -
22/04:30pm 22.6 NNE 13 20 1016.0 - 0.0 - - - - - - -
22/04:00pm 23.7 NNE 11 20 1016.2 - 0.0 - - - - - - -
22/03:30pm 23.4 NNE 13 21 1016.5 - 0.0 - - - - - - -
22/03:00pm 23.4 NE 13 20 1016.8 - 0.0 - - - - - - -
22/02:30pm 23.8 NE 11 17 1017.0 - 0.0 - - - - - - -
22/02:00pm 24.1 NE 12 19 1017.2 - 0.0 - - - - - - -
22/01:30pm 23.8 NE 11 19 1017.3 - 0.0 - - - - - - -
22/01:00pm 23.6 NE 11 18 1017.5 - 0.0 - - - - - - -
22/12:30pm 24.4 NE 11 17 1017.6 - 0.0 - - - - - - -
22/12:00pm 22.6 NE 11 17 1018.0 - 0.0 - - - - - - -
22/11:30am 21.5 ENE 7 10 1018.3 - 0.0 - - - - - - -
22/11:00am 21.4 ENE 7 10 1018.6 - 0.0 - - - - - - -
22/10:30am 21.0 ENE 6 9 1018.7 - 0.0 - - - - - - -
22/10:00am 19.8 NW 2 4 1018.7 - 0.0 - - - - - - -
22/09:30am 18.0 WSW 3 5 1018.9 - 0.0 - - - - - - -
22/09:00am 16.1 WNW 4 5 1018.8 - 0.0 - - - - - - -
22/08:30am 14.1 WNW 4 6 1018.9 - 0.0 - - - - - - -
22/08:00am 12.9 WNW 5 6 1018.7 - 0.0 - - - - - - -
22/07:30am 10.9 WNW 6 7 1018.4 - 0.0 - - - - - - -
22/07:00am 10.0 WNW 6 6 1018.0 - 0.0 - - - - - - -
22/06:30am 10.6 WNW 5 6 1017.8 - 0.0 - - - - - - -
22/06:00am 10.3 WNW 3 4 1017.7 - 0.0 - - - - - - -
22/05:30am 9.8 NW 4 5 1017.6 - 0.0 - - - - - - -
22/05:00am 10.9 WNW 4 5 1017.5 - 0.0 - - - - - - -
22/04:30am 11.7 WNW 4 5 1017.4 - 0.0 - - - - - - -
22/04:00am 11.8 WNW 5 5 1017.4 - 0.0 - - - - - - -
22/03:30am 11.7 WNW 5 6 1017.5 - 0.0 - - - - - - -
22/03:00am 12.0 WNW 2 3 1017.6 - 0.0 - - - - - - -
22/02:30am 11.7 WNW 4 5 1017.7 - 0.0 - - - - - - -
22/02:00am 12.4 W 3 5 1017.7 - 0.0 - - - - - - -
22/01:30am 13.2 W 3 3 1017.8 - 0.0 - - - - - - -
22/01:00am 15.1 NW 3 6 1017.9 - 0.0 - - - - - - -
22/12:30am 14.9 N 4 7 1017.9 - 0.0 - - - - - - -
22/12:00am 14.1 N 4 5 1018.0 - 0.0 - - - - - - -
 
Date/Time
EDT
Temp
°C
Wind Pressure Rain since
9am
mm
Weather Cloud Vis
km
Sea
Height
m
Swell
Dir  Spd
kts
Gust
kts
hPa Trend Height
m
Period
s
Dir
21/11:30pm 14.1 N 3 4 1018.1 - 0.0 - - - - - - -
21/11:00pm 14.7 NNE 5 6 1018.2 - 0.0 - - - - - - -
21/10:30pm 14.9 NNE 4 7 1018.3 - 0.0 - - - - - - -
21/10:00pm 15.8 NNE 6 10 1018.1 - 0.0 - - - - - - -
21/09:30pm 16.3 N 8 14 1017.9 - 0.0 - - - - - - -
21/09:00pm 16.4 N 8 15 1017.8 - 0.0 - - - - - - -
21/08:30pm 16.3 NNE 8 13 1017.2 - 0.0 - - - - - - -
21/08:00pm 16.4 NNE 9 14 1017.0 - 0.0 - - - - - - -
21/07:30pm 17.0 NNE 9 15 1017.0 - 0.0 - - - - - - -
21/07:00pm 17.8 NNE 12 18 1016.7 - 0.0 - - - - - - -
21/06:30pm 19.0 NNE 13 21 1016.7 - 0.0 - - - - - - -
21/06:00pm 18.3 NNE 13 21 1016.6 - 0.0 - - - - - - -
21/05:30pm 18.5 NNE 13 21 1016.7 - 0.0 - - - - - - -
21/05:00pm 20.0 NNE 13 22 1016.9 - 0.0 - - - - - - -
21/04:30pm 18.8 NNE 14 20 1017.2 - 0.0 - - - - - - -
21/04:00pm 18.9 NNE 12 17 1017.3 - 0.0 - - - - - - -
21/03:30pm 19.3 NNE 13 19 1017.3 - 0.0 - - - - - - -
21/03:00pm 21.3 NNE 12 20 1017.7 - 0.0 - - - - - - -
21/02:30pm 21.7 NE 14 21 1017.7 - 0.0 - - - - - - -
21/02:00pm 21.3 NNE 13 19 1018.2 - 0.0 - - - - - - -
21/01:30pm 19.8 NNE 12 19 1018.5 - 0.0 - - - - - - -
21/01:00pm 20.3 NNE 13 19 1018.8 - 0.0 - - - - - - -
21/12:30pm 19.4 NNE 11 16 1019.0 - 0.0 - - - - - - -
21/12:00pm 19.8 NNE 9 15 1019.3 - 0.0 - - - - - - -
21/11:30am 19.7 NNE 10 17 1019.7 - 0.0 - - - - - - -
21/11:00am 18.5 NNE 9 16 1020.0 - 0.0 - - - - - - -
21/10:30am 16.7 NNW 4 9 1020.2 - 0.0 - - - - - - -
21/10:00am 16.4 NNW 4 7 1020.5 - 0.0 - - - - - - -
21/09:30am 15.0 NNW 4 8 1020.6 - 0.0 - - - - - - -
21/09:00am 14.3 NW 3 6 1020.9 - 0.0 - - - - - - -
21/08:30am 12.8 NW 4 5 1020.9 - 0.0 - - - - - - -
21/08:00am 12.9 NW 4 5 1020.7 - 0.0 - - - - - - -
21/07:30am 10.8 NW 4 5 1020.3 - 0.0 - - - - - - -
21/07:00am 10.7 NW 5 6 1020.3 - 0.0 - - - - - - -
21/06:30am 9.8 NW 4 5 1020.2 - 0.0 - - - - - - -
21/06:00am 10.0 NW 4 5 1020.2 - 0.0 - - - - - - -
21/05:30am 11.0 NW 4 5 1020.1 - 0.0 - - - - - - -
21/05:00am 10.5 NW 4 5 1020.0 - 0.0 - - - - - - -
21/04:30am 9.4 NW 5 5 1020.1 - 0.0 - - - - - - -
21/04:00am 10.1 NW 4 5 1020.4 - 0.0 - - - - - - -
21/03:30am 10.6 NNW 4 5 1020.4 - 0.0 - - - - - - -
21/03:00am 10.8 NNW 5 6 1020.7 - 0.0 - - - - - - -
21/02:30am 9.7 NW 4 5 1020.9 - 0.0 - - - - - - -
21/02:00am 10.3 NNW 4 4 1021.2 - 0.0 - - - - - - -
21/01:30am 11.9 NNE 3 6 1021.3 - 0.0 - - - - - - -
21/01:00am 12.3 NNE 5 9 1021.4 - 0.0 - - - - - - -
21/12:30am 11.1 NE 3 7 1021.7 - 0.0 - - - - - - -
21/12:00am 9.8 NNE 2 6 1022.2 - 0.0 - - - - - - -
 
Date/Time
EDT
Temp
°C
Wind Pressure Rain since
9am
mm
Weather Cloud Vis
km
Sea
Height
m
Swell
Dir  Spd
kts
Gust
kts
hPa Trend Height
m
Period
s
Dir
20/11:30pm 9.8 NW 2 3 1022.8 - 0.0 - - - - - - -
20/11:00pm 10.1 NNE 3 4 1022.9 - 0.0 - - - - - - -
20/10:30pm 10.5 WNW 2 3 1023.1 - 0.0 - - - - - - -
20/10:00pm 11.5 ENE 2 3 1023.1 - 0.0 - - - - - - -
20/09:30pm 11.5 ENE 2 3 1022.9 - 0.0 - - - - - - -
20/09:00pm 11.7 E 2 3 1022.8 - 0.0 - - - - - - -
20/08:30pm 11.7 NNE 1 2 1022.8 - 0.0 - - - - - - -
20/08:00pm 13.5 E 2 4 1022.5 - 0.0 - - - - - - -
20/07:30pm 14.9 ESE 2 3 1022.7 - 0.0 - - - - - - -
20/07:00pm 15.5 E 2 3 1023.0 - 0.0 - - - - - - -
20/06:30pm 15.8 ESE 3 5 1023.0 - 0.0 - - - - - - -
20/06:00pm 16.4 E 4 6 1022.9 - 0.0 - - - - - - -
20/05:30pm 16.7 ESE 5 7 1023.2 - 0.0 - - - - - - -
20/05:00pm 17.2 ESE 5 7 1023.4 - 0.0 - - - - - - -
20/04:30pm 17.5 ESE 7 10 1023.6 - 0.0 - - - - - - -
20/04:00pm 17.7 ESE 7 9 1024.0 - 0.0 - - - - - - -
20/03:30pm 17.7 ESE 6 9 1024.2 - 0.0 - - - - - - -
20/03:00pm 18.3 ESE 8 11 1024.3 - 0.0 - - - - - - -
20/02:30pm 18.0 SE 8 12 1024.5 - 0.0 - - - - - - -
20/02:00pm 18.5 SE 9 12 1024.6 - 0.0 - - - - - - -
20/01:30pm 18.2 SSE 8 12 1024.8 - 0.0 - - - - - - -
20/01:00pm 17.0 SSE 9 12 1025.1 - 0.0 - - - - - - -
20/12:30pm 17.0 SE 7 9 1025.2 - 0.0 - - - - - - -
20/12:00pm 16.7 SSE 7 10 1025.6 - 0.0 - - - - - - -
20/11:30am 16.6 SSE 9 12 1025.6 - 0.0 - - - - - - -
20/11:00am 15.1 SSE 7 11 1026.2 - 0.0 - - - - - - -
20/10:30am 14.9 SSE 6 11 1026.2 - 0.0 - - - - - - -
20/10:00am 14.5 S 5 8 1026.3 - 0.0 - - - - - - -
20/09:30am 14.3 SSW 6 9 1026.3 - 0.0 - - - - - - -

Other Formats:

Comma delimited format used in spreadsheet applications
http://www.bom.gov.au/fwo/IDT60701/IDT60701.94987.axf

JavaScript Object Notation format (JSON) in row-major order
http://www.bom.gov.au/fwo/IDT60701/IDT60701.94987.json